createdAt,value
2022-10-08T00:29:44.449Z,7.60
2022-10-08T00:32:25.546Z,4.70
2022-10-08T00:35:01.404Z,8.53
2022-10-08T00:37:45.763Z,5.83
2022-10-08T00:40:51.148Z,7.53
2022-10-08T00:43:48.320Z,7.00
2022-10-08T00:46:40.394Z,4.30
2022-10-08T00:49:15.518Z,5.93
2022-10-08T00:51:56.704Z,7.47
2022-10-08T00:54:31.263Z,9.47
2022-10-08T00:56:58.886Z,9.83
2022-10-08T00:59:28.435Z,4.80
2022-10-08T01:01:57.457Z,5.40
2022-10-08T01:04:25.486Z,4.00
2022-10-08T01:06:57.607Z,6.57
2022-10-08T01:09:29.994Z,10.23
2022-10-08T01:12:01.302Z,8.43
2022-10-08T01:14:33.784Z,4.60
2022-10-08T01:17:07.158Z,9.43
2022-10-08T01:19:48.804Z,9.33
2022-10-08T01:22:21.527Z,9.50
2022-10-08T01:25:06.977Z,5.97
2022-10-08T01:27:38.500Z,8.17
2022-10-08T01:30:07.861Z,6.43
2022-10-08T01:32:38.667Z,4.93
2022-10-08T01:35:09.413Z,6.33
2022-10-08T01:37:39.045Z,9.23
2022-10-08T01:40:09.436Z,7.23
2022-10-08T01:42:39.864Z,7.63
2022-10-08T01:45:09.399Z,7.17
2022-10-08T01:47:39.563Z,6.10
2022-10-08T01:50:09.916Z,7.90
2022-10-08T01:52:38.638Z,9.37
2022-10-08T01:55:08.452Z,6.43
2022-10-08T01:57:37.695Z,11.70
2022-10-08T02:00:07.407Z,8.00
2022-10-08T02:02:35.201Z,7.10
2022-10-08T02:05:02.964Z,8.87
2022-10-08T02:07:31.954Z,11.10
2022-10-08T02:10:05.862Z,4.60
2022-10-08T02:12:33.470Z,6.47
2022-10-08T02:15:02.419Z,8.10
2022-10-08T02:17:35.683Z,6.33
2022-10-08T02:20:06.054Z,9.53
2022-10-08T02:22:35.536Z,8.00
2022-10-08T02:25:08.019Z,7.50
2022-10-08T02:27:40.694Z,6.03
2022-10-08T02:30:10.779Z,9.43
2022-10-08T02:32:39.693Z,7.67
2022-10-08T02:35:11.292Z,6.53
2022-10-08T02:37:41.132Z,6.30
2022-10-08T02:40:10.657Z,9.03
2022-10-08T02:42:38.920Z,6.50
2022-10-08T02:45:08.334Z,6.33
2022-10-08T02:47:37.737Z,6.43
2022-10-08T02:50:09.910Z,6.10
2022-10-08T02:52:40.394Z,6.97
2022-10-08T02:55:11.734Z,9.10
2022-10-08T02:57:42.361Z,6.43
2022-10-08T03:00:11.397Z,10.57
2022-10-08T03:02:41.284Z,10.70
2022-10-08T03:05:10.369Z,4.50
2022-10-08T03:07:38.079Z,6.27
2022-10-08T03:10:06.503Z,4.77
2022-10-08T03:12:34.268Z,6.37
2022-10-08T03:15:02.081Z,8.63
2022-10-08T03:17:38.752Z,6.73
2022-10-08T03:20:08.757Z,8.17
2022-10-08T03:22:37.400Z,6.50
2022-10-08T03:25:05.417Z,6.83
2022-10-08T03:27:35.033Z,6.57
2022-10-08T03:30:03.026Z,7.27
2022-10-08T03:32:30.587Z,6.60
2022-10-08T03:34:58.332Z,7.30
2022-10-08T03:37:27.227Z,5.63
2022-10-08T03:39:54.806Z,6.30
2022-10-08T03:42:22.432Z,3.60
2022-10-08T03:44:50.106Z,8.43
2022-10-08T03:47:17.686Z,5.63
2022-10-08T03:49:45.351Z,8.20
2022-10-08T03:52:12.896Z,6.27
2022-10-08T03:54:41.833Z,6.37
2022-10-08T03:57:09.436Z,5.00
2022-10-08T03:59:37.037Z,4.33
2022-10-08T04:02:04.753Z,7.23
2022-10-08T04:04:32.431Z,8.40
2022-10-08T04:07:00.159Z,6.07
2022-10-08T04:09:27.793Z,6.13
2022-10-08T04:11:56.692Z,11.23
2022-10-08T04:14:24.581Z,6.63
2022-10-08T04:16:52.209Z,6.60
2022-10-08T04:19:19.923Z,5.00
2022-10-08T04:21:48.165Z,5.93
2022-10-08T04:24:15.863Z,6.77
2022-10-08T04:26:43.438Z,6.83
2022-10-08T04:29:12.978Z,12.67
2022-10-08T04:31:40.876Z,6.37
2022-10-08T04:34:08.445Z,7.40
2022-10-08T04:36:36.019Z,7.90
2022-10-08T04:39:03.807Z,8.57
2022-10-08T04:44:05.510Z,10.60
2022-10-08T04:46:34.695Z,8.80
2022-10-08T04:49:02.572Z,5.33
2022-10-08T04:51:30.417Z,6.33
2022-10-08T04:53:58.312Z,6.77
2022-10-08T04:56:27.530Z,7.33
2022-10-08T04:58:56.068Z,19.37
2022-10-08T05:01:24.047Z,9.37
2022-10-08T05:03:54.686Z,10.03
2022-10-08T05:06:23.831Z,8.37
2022-10-08T05:08:52.708Z,7.50
2022-10-08T05:11:20.650Z,6.73
2022-10-08T05:13:50.793Z,7.40
2022-10-08T05:16:19.081Z,5.40
2022-10-08T05:18:47.076Z,6.27
2022-10-08T05:21:16.944Z,8.47
2022-10-08T05:23:44.739Z,6.30
2022-10-08T05:26:14.304Z,7.27
2022-10-08T05:28:42.133Z,5.03
2022-10-08T05:31:09.996Z,8.10
2022-10-08T05:33:38.182Z,8.63
2022-10-08T05:36:06.797Z,9.13
2022-10-08T05:38:36.340Z,5.43
2022-10-08T05:41:11.172Z,6.77
2022-10-08T05:43:38.923Z,5.37
2022-10-08T05:46:06.850Z,7.37
2022-10-08T05:48:34.686Z,9.70
2022-10-08T05:51:06.565Z,9.00
2022-10-08T05:53:37.326Z,8.43
2022-10-08T05:56:06.434Z,8.37
2022-10-08T05:58:35.072Z,11.37
2022-10-08T06:01:03.456Z,11.83
2022-10-08T06:03:31.149Z,10.57
2022-10-08T06:06:02.788Z,11.00
2022-10-08T06:08:30.460Z,11.50
2022-10-08T06:10:59.546Z,13.33
2022-10-08T06:13:27.268Z,13.70
2022-10-08T06:15:56.520Z,13.53
2022-10-08T06:18:24.545Z,17.07
2022-10-08T06:20:52.317Z,12.90
2022-10-08T06:23:20.181Z,14.83
2022-10-08T06:25:47.924Z,16.27
2022-10-08T06:28:17.077Z,13.03
2022-10-08T06:30:44.869Z,14.20
2022-10-08T06:33:12.636Z,14.30
2022-10-08T06:35:40.361Z,13.13
2022-10-08T06:38:09.252Z,12.60
2022-10-08T06:40:39.234Z,14.30
2022-10-08T06:43:07.722Z,12.77
2022-10-08T06:45:40.479Z,17.57
2022-10-08T06:48:25.215Z,18.03
2022-10-08T06:50:58.954Z,14.17
2022-10-08T06:53:26.750Z,14.67
2022-10-08T06:55:57.685Z,15.73
2022-10-08T06:58:25.449Z,15.43
2022-10-08T07:01:03.534Z,15.53
2022-10-08T07:03:31.360Z,17.73
2022-10-08T07:06:01.097Z,14.43
2022-10-08T07:08:28.818Z,12.37
2022-10-08T07:10:56.501Z,14.07
2022-10-08T07:13:24.140Z,15.07
2022-10-08T07:18:36.008Z,16.23
2022-10-08T07:21:03.990Z,14.90
2022-10-08T07:27:19.181Z,15.33
2022-10-08T07:29:48.088Z,14.73
2022-10-08T07:32:15.669Z,19.37
2022-10-08T07:34:45.691Z,13.97
2022-10-08T07:37:13.354Z,13.27
2022-10-08T07:39:42.017Z,16.10
2022-10-08T07:42:09.651Z,17.33
2022-10-08T07:44:43.662Z,15.43
2022-10-08T07:47:11.229Z,14.40
2022-10-08T07:49:38.950Z,16.47
2022-10-08T07:52:08.106Z,14.43
2022-10-08T07:54:35.868Z,12.83
2022-10-08T07:57:03.458Z,14.47
2022-10-08T07:59:32.154Z,12.77
2022-10-08T08:01:59.759Z,16.23
2022-10-08T08:04:27.720Z,14.13
2022-10-08T08:06:55.309Z,14.33
2022-10-08T08:09:24.494Z,15.20
2022-10-08T08:11:52.104Z,12.33
2022-10-08T08:14:21.492Z,12.43
2022-10-08T08:16:49.326Z,12.50
2022-10-08T08:19:16.934Z,12.87
2022-10-08T08:21:44.669Z,13.27
2022-10-08T08:24:13.017Z,13.33
2022-10-08T08:26:42.821Z,10.17
2022-10-08T08:29:12.414Z,9.93
2022-10-08T08:31:41.483Z,9.90
2022-10-08T08:34:13.068Z,9.47
2022-10-08T08:36:42.205Z,9.43
2022-10-08T08:39:14.721Z,10.90
2022-10-08T08:41:55.680Z,10.80
2022-10-08T08:44:25.165Z,17.00
2022-10-08T08:46:56.053Z,11.67
2022-10-08T09:53:32.695Z,9.13
2022-10-08T10:24:02.053Z,5.53
2022-10-08T10:26:41.787Z,7.80
2022-10-08T10:29:11.497Z,7.72
2022-10-08T10:31:39.714Z,7.53
2022-10-08T10:34:08.529Z,7.63
2022-10-08T10:36:37.846Z,6.13
2022-10-08T10:39:12.264Z,5.28
2022-10-08T10:41:43.316Z,5.15
2022-10-08T10:44:11.462Z,6.25
2022-10-08T10:46:41.803Z,4.88
2022-10-08T10:49:42.294Z,4.68
2022-10-08T10:52:24.286Z,3.45
2022-10-08T10:55:02.973Z,4.32
2022-10-08T10:57:40.587Z,6.60
2022-10-08T11:00:11.155Z,5.38
2022-10-08T11:02:41.695Z,3.63
2022-10-08T11:05:13.100Z,4.45
2022-10-08T11:08:03.441Z,6.07
2022-10-08T11:10:40.994Z,3.78
2022-10-08T11:13:17.142Z,4.20
2022-10-08T11:15:45.934Z,5.25
2022-10-08T11:18:22.141Z,5.55
2022-10-08T11:20:56.705Z,3.17
2022-10-08T11:23:48.704Z,4.93
2022-10-08T11:26:22.720Z,3.25
2022-10-08T11:28:55.166Z,8.60
2022-10-08T11:31:27.840Z,4.97
2022-10-08T11:33:55.773Z,2.53
2022-10-08T11:36:30.545Z,3.22
2022-10-08T11:39:04.696Z,2.90
2022-10-08T11:41:36.800Z,4.53
2022-10-08T11:44:04.637Z,3.45
2022-10-08T11:46:32.885Z,2.67
2022-10-08T11:49:01.627Z,3.85
2022-10-08T11:51:39.481Z,2.70
2022-10-08T11:54:17.873Z,2.53
2022-10-08T11:56:48.133Z,2.33
2022-10-08T11:59:33.640Z,3.13
2022-10-08T12:02:04.914Z,2.53
2022-10-08T12:04:35.448Z,2.25
2022-10-08T12:07:09.624Z,5.90
2022-10-08T12:10:23.772Z,2.55
2022-10-08T12:13:24.718Z,4.38
2022-10-08T12:21:56.402Z,5.03
2022-10-08T12:24:59.970Z,2.25
2022-10-08T12:27:35.677Z,4.22
2022-10-08T12:30:06.472Z,2.45
2022-10-08T12:32:34.981Z,3.60
2022-10-08T12:35:02.831Z,2.63
2022-10-08T12:37:42.198Z,1.92
2022-10-08T12:40:14.509Z,2.53
2022-10-08T12:42:42.721Z,3.47
2022-10-08T12:45:16.059Z,2.65
2022-10-08T12:47:47.351Z,3.83
2022-10-08T12:50:35.502Z,6.22
2022-10-08T12:53:03.157Z,3.00
2022-10-08T12:55:35.620Z,4.20
2022-10-08T12:58:05.388Z,3.25
2022-10-08T13:00:34.978Z,2.60
2022-10-08T13:03:03.439Z,2.60
2022-10-08T13:05:33.019Z,2.88
2022-10-08T13:08:07.305Z,5.03
2022-10-08T13:10:34.945Z,4.05
2022-10-08T13:13:03.407Z,3.40
2022-10-08T13:15:32.551Z,3.10
2022-10-08T13:18:12.649Z,2.95
2022-10-08T13:20:40.363Z,3.17
2022-10-08T13:23:26.296Z,4.47
2022-10-08T13:25:56.318Z,2.80
2022-10-08T13:28:42.147Z,2.90
2022-10-08T13:31:22.216Z,2.70
2022-10-08T13:33:51.566Z,3.77
2022-10-08T13:36:21.262Z,3.47
2022-10-08T13:38:48.906Z,8.13
2022-10-08T13:41:23.457Z,1.80
2022-10-08T13:43:51.235Z,3.47
2022-10-08T13:46:18.999Z,6.03
2022-10-08T13:48:46.678Z,4.70
2022-10-08T13:51:15.638Z,4.00
2022-10-08T13:53:45.519Z,6.70
2022-10-08T13:56:13.504Z,5.03
2022-10-08T13:58:41.176Z,2.93
2022-10-08T14:01:08.930Z,3.80
2022-10-08T14:03:36.602Z,3.87
2022-10-08T14:06:04.477Z,4.90
2022-10-08T14:08:34.335Z,5.70
2022-10-08T14:11:01.989Z,3.53
2022-10-08T14:13:29.709Z,6.03
2022-10-08T14:15:57.597Z,3.67
2022-10-08T14:18:26.378Z,4.10
2022-10-08T14:20:53.972Z,4.30
2022-10-08T14:23:22.191Z,2.80
2022-10-08T14:25:52.142Z,3.47
2022-10-08T14:28:19.891Z,3.43
2022-10-08T14:30:47.751Z,3.90
2022-10-08T14:33:15.358Z,5.53
2022-10-08T14:35:42.942Z,3.83
2022-10-08T14:38:10.647Z,2.57
2022-10-08T14:40:38.932Z,5.20
2022-10-08T14:43:07.911Z,2.43
2022-10-08T14:45:37.251Z,3.47
2022-10-08T14:48:05.124Z,2.43
2022-10-08T14:50:32.779Z,2.13
2022-10-08T14:53:00.463Z,2.97
2022-10-08T14:55:29.443Z,3.97
2022-10-08T14:57:57.255Z,3.27
2022-10-08T15:00:26.247Z,2.40
2022-10-08T15:02:53.920Z,1.33
2022-10-08T15:05:21.538Z,2.13
2022-10-08T15:07:49.488Z,3.53
2022-10-08T15:10:17.308Z,5.70
2022-10-08T15:12:45.701Z,1.93
2022-10-08T15:15:13.681Z,2.07
2022-10-08T15:17:42.644Z,5.13
2022-10-08T15:20:10.992Z,2.30
2022-10-08T15:22:38.836Z,3.93
2022-10-08T15:25:07.875Z,2.50
2022-10-08T15:27:35.761Z,2.87
2022-10-08T15:30:03.645Z,2.60
2022-10-08T15:32:31.352Z,2.93
2022-10-08T15:35:01.251Z,6.63
2022-10-08T15:59:15.696Z,3.10
2022-10-08T16:01:43.339Z,3.23
2022-10-08T16:04:12.861Z,2.50
2022-10-08T16:06:44.999Z,1.97
2022-10-08T16:09:18.841Z,4.07
2022-10-08T16:11:46.586Z,5.27
2022-10-08T16:14:15.318Z,4.13
2022-10-08T16:16:44.098Z,2.80
2022-10-08T16:25:09.010Z,3.30
2022-10-08T16:27:37.066Z,4.67
2022-10-08T16:30:37.418Z,3.67
2022-10-08T16:36:51.444Z,7.23
2022-10-08T16:39:20.833Z,4.73
2022-10-08T16:41:52.613Z,3.83
2022-10-08T16:44:22.059Z,5.93
2022-10-08T16:46:50.840Z,6.33
2022-10-08T16:49:24.288Z,3.60
2022-10-08T16:51:53.210Z,4.33
2022-10-08T16:54:20.948Z,7.57
2022-10-08T16:56:50.135Z,3.13
2022-10-08T16:59:36.273Z,2.40
2022-10-08T17:02:06.436Z,3.20
2022-10-08T17:04:39.120Z,3.03
2022-10-08T17:07:08.480Z,4.73
2022-10-08T17:09:36.645Z,8.03
2022-10-08T17:12:05.813Z,3.13
2022-10-08T17:14:34.362Z,5.87
2022-10-08T17:17:04.885Z,3.47
2022-10-08T17:19:32.691Z,6.17
2022-10-08T17:22:00.534Z,6.47
2022-10-08T17:24:28.418Z,2.93
2022-10-08T17:26:56.141Z,5.40
2022-10-08T17:29:25.197Z,6.93
2022-10-08T17:31:52.921Z,3.97
2022-10-08T17:34:20.705Z,4.80
2022-10-08T17:36:48.405Z,3.30
2022-10-08T17:39:16.211Z,3.63
2022-10-08T17:41:43.927Z,10.70
2022-10-08T17:44:11.952Z,9.93
2022-10-08T17:46:45.579Z,5.97
2022-10-08T17:49:13.834Z,7.07
2022-10-08T17:51:43.177Z,4.23
2022-10-08T17:54:12.760Z,4.47
2022-10-08T17:56:40.798Z,4.07
2022-10-08T17:59:08.899Z,9.33
2022-10-08T18:01:39.178Z,5.30
2022-10-08T18:04:11.029Z,4.70
2022-10-08T18:06:40.720Z,5.97
2022-10-08T18:09:09.516Z,4.23
2022-10-08T18:11:38.379Z,5.27
2022-10-08T18:14:07.892Z,6.53
2022-10-08T18:16:35.896Z,7.03
2022-10-08T18:19:08.619Z,7.73
2022-10-08T18:21:38.729Z,5.67
2022-10-08T18:24:06.524Z,4.80
2022-10-08T18:26:36.697Z,5.87
2022-10-08T18:29:15.781Z,6.47
2022-10-08T18:31:44.174Z,7.50
2022-10-08T18:34:13.436Z,6.47
2022-10-08T18:36:42.577Z,6.33
2022-10-08T18:39:12.085Z,5.43
2022-10-08T18:41:41.680Z,11.83
2022-10-08T18:44:13.537Z,9.77
2022-10-08T18:46:44.513Z,8.77
2022-10-08T18:49:13.794Z,8.20
2022-10-08T18:51:42.920Z,7.03
2022-10-08T18:54:11.248Z,9.17
2022-10-08T18:56:40.732Z,6.70
2022-10-08T18:59:09.217Z,11.43
2022-10-08T19:01:38.489Z,10.47
2022-10-08T19:04:08.010Z,9.50
2022-10-08T19:06:37.335Z,8.30
2022-10-08T19:09:06.554Z,4.77
2022-10-08T19:11:39.547Z,6.13
2022-10-08T19:14:12.039Z,8.77
2022-10-08T19:16:40.230Z,5.73
2022-10-08T19:19:11.642Z,6.87
2022-10-08T19:21:39.323Z,7.00
2022-10-08T19:24:09.001Z,6.10
2022-10-08T19:26:36.668Z,4.47
2022-10-08T19:29:04.407Z,7.77
2022-10-08T19:31:32.807Z,5.80
2022-10-08T19:34:01.174Z,5.23
2022-10-08T19:36:30.304Z,6.47
2022-10-08T19:38:58.518Z,6.73
2022-10-08T19:41:27.648Z,6.53
2022-10-08T19:43:56.340Z,6.17
2022-10-08T19:46:24.032Z,8.50
2022-10-08T19:48:52.082Z,6.57
2022-10-08T19:51:19.841Z,6.63
2022-10-08T19:53:47.478Z,5.47
2022-10-08T19:56:28.227Z,4.23
2022-10-08T19:58:56.987Z,4.83
2022-10-08T20:01:26.600Z,4.80
2022-10-08T20:03:56.070Z,8.20
2022-10-08T20:06:25.273Z,9.70
2022-10-08T20:08:54.930Z,7.77
2022-10-08T20:11:23.574Z,8.83
2022-10-08T20:13:54.100Z,6.07
2022-10-08T22:46:32.986Z,7.20
2022-10-08T22:59:33.394Z,7.00
2022-10-08T23:02:03.207Z,6.67
2022-10-08T23:04:31.527Z,8.50
2022-10-08T23:07:01.918Z,7.73
2022-10-08T23:09:29.873Z,7.60
2022-10-08T23:11:57.765Z,7.20
2022-10-08T23:14:25.933Z,7.53
2022-10-08T23:16:55.773Z,5.97
2022-10-08T23:19:24.022Z,6.67
2022-10-08T23:21:52.201Z,7.33
2022-10-08T23:24:20.523Z,11.27
2022-10-08T23:26:48.589Z,7.43
2022-10-08T23:29:16.747Z,6.93
2022-10-08T23:31:45.054Z,8.13
2022-10-08T23:34:25.759Z,7.27
2022-10-08T23:36:59.488Z,6.20
2022-10-08T23:39:27.642Z,6.63
2022-10-08T23:41:55.592Z,9.67
2022-10-08T23:44:23.851Z,8.60
2022-10-08T23:46:51.958Z,9.57
2022-10-08T23:49:21.472Z,8.50
2022-10-08T23:51:50.078Z,8.43
2022-10-08T23:54:18.198Z,7.50
2022-10-08T23:56:46.272Z,8.30
2022-10-08T23:59:14.161Z,7.27
